sensor_id;sensor_type;location;lat;lon;timestamp;pressure;altitude;pressure_sealevel;temperature;humidity
74218;BME280;62579;47.288;18.646;2023-12-22T00:02:17;97455.06;;;7.19;96.58
74218;BME280;62579;47.288;18.646;2023-12-22T00:04:42;97471.84;;;7.18;96.71
74218;BME280;62579;47.288;18.646;2023-12-22T00:07:10;97528.97;;;7.14;97.16
74218;BME280;62579;47.288;18.646;2023-12-22T00:09:35;97658.00;;;6.93;99.82
74218;BME280;62579;47.288;18.646;2023-12-22T00:12:02;97676.53;;;6.76;100.00
74218;BME280;62579;47.288;18.646;2023-12-22T00:14:28;97691.22;;;6.68;100.00
74218;BME280;62579;47.288;18.646;2023-12-22T00:16:53;97685.31;;;6.56;100.00
74218;BME280;62579;47.288;18.646;2023-12-22T00:19:20;97689.56;;;6.38;100.00
74218;BME280;62579;47.288;18.646;2023-12-22T00:21:45;97688.12;;;6.37;100.00
74218;BME280;62579;47.288;18.646;2023-12-22T00:24:11;97693.28;;;6.35;100.00
74218;BME280;62579;47.288;18.646;2023-12-22T00:26:36;97709.94;;;6.39;100.00
74218;BME280;62579;47.288;18.646;2023-12-22T00:29:01;97712.00;;;6.33;100.00
74218;BME280;62579;47.288;18.646;2023-12-22T00:31:27;97714.31;;;6.42;100.00
74218;BME280;62579;47.288;18.646;2023-12-22T00:33:52;97710.12;;;6.54;100.00
74218;BME280;62579;47.288;18.646;2023-12-22T00:36:18;97730.09;;;6.38;100.00
74218;BME280;62579;47.288;18.646;2023-12-22T00:38:45;97724.56;;;6.31;100.00
74218;BME280;62579;47.288;18.646;2023-12-22T00:41:11;97730.28;;;6.27;100.00
74218;BME280;62579;47.288;18.646;2023-12-22T00:43:36;97734.63;;;6.17;100.00
74218;BME280;62579;47.288;18.646;2023-12-22T00:46:01;97751.28;;;6.21;100.00
74218;BME280;62579;47.288;18.646;2023-12-22T00:48:27;97752.69;;;6.09;100.00
74218;BME280;62579;47.288;18.646;2023-12-22T00:50:53;97767.75;;;6.04;100.00
74218;BME280;62579;47.288;18.646;2023-12-22T00:53:19;97771.16;;;6.05;100.00
74218;BME280;62579;47.288;18.646;2023-12-22T00:55:44;97787.66;;;6.01;100.00
74218;BME280;62579;47.288;18.646;2023-12-22T00:58:09;97797.06;;;5.95;100.00
74218;BME280;62579;47.288;18.646;2023-12-22T01:00:34;97801.97;;;5.96;100.00
74218;BME280;62579;47.288;18.646;2023-12-22T01:03:00;97781.69;;;5.90;100.00
74218;BME280;62579;47.288;18.646;2023-12-22T01:05:26;97810.72;;;5.84;100.00
74218;BME280;62579;47.288;18.646;2023-12-22T01:07:51;97788.91;;;5.82;100.00
74218;BME280;62579;47.288;18.646;2023-12-22T01:10:16;97784.19;;;5.88;100.00
74218;BME280;62579;47.288;18.646;2023-12-22T01:12:42;97777.38;;;5.81;100.00
74218;BME280;62579;47.288;18.646;2023-12-22T01:15:07;97740.78;;;5.86;100.00
74218;BME280;62579;47.288;18.646;2023-12-22T01:17:33;97704.97;;;5.85;100.00
74218;BME280;62579;47.288;18.646;2023-12-22T01:19:59;97699.37;;;5.96;100.00
74218;BME280;62579;47.288;18.646;2023-12-22T01:22:24;97695.53;;;5.92;100.00
74218;BME280;62579;47.288;18.646;2023-12-22T01:24:49;97688.53;;;5.83;100.00
74218;BME280;62579;47.288;18.646;2023-12-22T01:27:15;97685.47;;;5.92;100.00
74218;BME280;62579;47.288;18.646;2023-12-22T01:29:41;97691.47;;;5.85;100.00
74218;BME280;62579;47.288;18.646;2023-12-22T01:32:06;97684.16;;;5.80;100.00
74218;BME280;62579;47.288;18.646;2023-12-22T01:34:32;97686.13;;;5.80;100.00
74218;BME280;62579;47.288;18.646;2023-12-22T01:36:57;97690.16;;;5.73;100.00
74218;BME280;62579;47.288;18.646;2023-12-22T01:39:24;97707.06;;;5.74;100.00
74218;BME280;62579;47.288;18.646;2023-12-22T01:41:49;97722.19;;;5.64;100.00
74218;BME280;62579;47.288;18.646;2023-12-22T01:44:14;97723.97;;;5.61;100.00
74218;BME280;62579;47.288;18.646;2023-12-22T01:46:40;97730.59;;;5.60;100.00
74218;BME280;62579;47.288;18.646;2023-12-22T01:49:06;97744.22;;;5.49;100.00
74218;BME280;62579;47.288;18.646;2023-12-22T01:51:33;97752.97;;;5.55;100.00
74218;BME280;62579;47.288;18.646;2023-12-22T01:54:00;97758.59;;;5.57;100.00
74218;BME280;62579;47.288;18.646;2023-12-22T01:56:26;97750.06;;;5.53;100.00
74218;BME280;62579;47.288;18.646;2023-12-22T01:58:57;97738.69;;;5.60;100.00
74218;BME280;62579;47.288;18.646;2023-12-22T02:01:24;97724.47;;;5.60;100.00
74218;BME280;62579;47.288;18.646;2023-12-22T02:03:50;97691.78;;;5.63;100.00
74218;BME280;62579;47.288;18.646;2023-12-22T02:06:19;97675.09;;;5.65;100.00
74218;BME280;62579;47.288;18.646;2023-12-22T02:08:46;97684.94;;;5.62;100.00
74218;BME280;62579;47.288;18.646;2023-12-22T02:11:14;97673.50;;;5.56;100.00
74218;BME280;62579;47.288;18.646;2023-12-22T02:13:40;97673.72;;;5.58;100.00
74218;BME280;62579;47.288;18.646;2023-12-22T02:16:13;97676.41;;;5.58;100.00
74218;BME280;62579;47.288;18.646;2023-12-22T02:18:43;97657.94;;;5.62;100.00
74218;BME280;62579;47.288;18.646;2023-12-22T02:21:11;97627.69;;;5.69;100.00
74218;BME280;62579;47.288;18.646;2023-12-22T02:23:37;97588.44;;;5.68;100.00
74218;BME280;62579;47.288;18.646;2023-12-22T02:26:14;97581.28;;;5.71;100.00
74218;BME280;62579;47.288;18.646;2023-12-22T02:28:44;97604.12;;;5.70;100.00
74218;BME280;62579;47.288;18.646;2023-12-22T02:31:18;97604.12;;;5.70;100.00
74218;BME280;62579;47.288;18.646;2023-12-22T02:33:47;97604.72;;;5.63;100.00
74218;BME280;62579;47.288;18.646;2023-12-22T02:36:15;97601.09;;;5.73;100.00
74218;BME280;62579;47.288;18.646;2023-12-22T02:38:43;97617.72;;;5.64;100.00
74218;BME280;62579;47.288;18.646;2023-12-22T02:41:10;97643.22;;;5.63;100.00
74218;BME280;62579;47.288;18.646;2023-12-22T02:43:36;97657.34;;;5.69;100.00
74218;BME280;62579;47.288;18.646;2023-12-22T02:46:01;97646.78;;;5.71;100.00
74218;BME280;62579;47.288;18.646;2023-12-22T02:48:27;97667.13;;;5.72;100.00
74218;BME280;62579;47.288;18.646;2023-12-22T02:50:52;97681.12;;;5.71;100.00
74218;BME280;62579;47.288;18.646;2023-12-22T02:53:17;97668.56;;;5.73;100.00
74218;BME280;62579;47.288;18.646;2023-12-22T02:55:43;97672.34;;;5.83;100.00
74218;BME280;62579;47.288;18.646;2023-12-22T02:58:08;97673.78;;;5.84;100.00
74218;BME280;62579;47.288;18.646;2023-12-22T03:00:33;97684.66;;;5.79;100.00
74218;BME280;62579;47.288;18.646;2023-12-22T03:02:59;97670.81;;;5.88;100.00
74218;BME280;62579;47.288;18.646;2023-12-22T03:05:25;97672.12;;;5.81;100.00
74218;BME280;62579;47.288;18.646;2023-12-22T03:07:51;97696.00;;;5.77;100.00
74218;BME280;62579;47.288;18.646;2023-12-22T03:10:16;97712.47;;;5.74;100.00
74218;BME280;62579;47.288;18.646;2023-12-22T03:12:41;97733.41;;;5.86;100.00
74218;BME280;62579;47.288;18.646;2023-12-22T03:15:07;97730.19;;;5.88;98.38
74218;BME280;62579;47.288;18.646;2023-12-22T03:17:33;97708.00;;;5.95;97.21
74218;BME280;62579;47.288;18.646;2023-12-22T03:19:58;97728.56;;;5.98;96.85
74218;BME280;62579;47.288;18.646;2023-12-22T03:22:24;97759.81;;;5.93;97.16
74218;BME280;62579;47.288;18.646;2023-12-22T03:24:49;97772.66;;;5.87;97.53
74218;BME280;62579;47.288;18.646;2023-12-22T03:27:15;97776.00;;;5.93;96.45
74218;BME280;62579;47.288;18.646;2023-12-22T03:29:43;97775.28;;;5.93;96.75
74218;BME280;62579;47.288;18.646;2023-12-22T03:32:09;97784.53;;;5.97;96.99
74218;BME280;62579;47.288;18.646;2023-12-22T03:34:35;97776.50;;;5.92;97.37
74218;BME280;62579;47.288;18.646;2023-12-22T03:37:01;97768.13;;;5.95;98.73
74218;BME280;62579;47.288;18.646;2023-12-22T03:39:27;97759.91;;;5.88;99.07
74218;BME280;62579;47.288;18.646;2023-12-22T03:41:53;97740.91;;;5.93;99.04
74218;BME280;62579;47.288;18.646;2023-12-22T03:44:18;97745.50;;;5.80;98.51
74218;BME280;62579;47.288;18.646;2023-12-22T03:46:43;97739.31;;;5.85;97.71
74218;BME280;62579;47.288;18.646;2023-12-22T03:49:09;97738.22;;;5.93;96.24
74218;BME280;62579;47.288;18.646;2023-12-22T03:51:34;97750.06;;;6.03;96.75
74218;BME280;62579;47.288;18.646;2023-12-22T03:53:59;97754.13;;;5.97;96.75
74218;BME280;62579;47.288;18.646;2023-12-22T03:56:25;97741.00;;;5.88;96.86
74218;BME280;62579;47.288;18.646;2023-12-22T03:58:50;97737.13;;;5.83;96.85
74218;BME280;62579;47.288;18.646;2023-12-22T04:01:17;97737.63;;;5.82;97.35
74218;BME280;62579;47.288;18.646;2023-12-22T04:03:43;97760.91;;;5.85;97.45
74218;BME280;62579;47.288;18.646;2023-12-22T04:06:08;97779.81;;;5.66;97.14
74218;BME280;62579;47.288;18.646;2023-12-22T04:08:34;97780.22;;;5.70;96.06
74218;BME280;62579;47.288;18.646;2023-12-22T04:10:59;97779.28;;;5.68;95.40
74218;BME280;62579;47.288;18.646;2023-12-22T04:13:25;97783.16;;;5.72;93.55
74218;BME280;62579;47.288;18.646;2023-12-22T04:15:50;97762.38;;;5.67;93.33
74218;BME280;62579;47.288;18.646;2023-12-22T04:18:15;97767.19;;;5.74;91.00
74218;BME280;62579;47.288;18.646;2023-12-22T04:20:41;97764.47;;;5.74;90.84
74218;BME280;62579;47.288;18.646;2023-12-22T04:23:07;97759.09;;;5.74;90.97
74218;BME280;62579;47.288;18.646;2023-12-22T04:25:32;97772.66;;;5.69;89.95
74218;BME280;62579;47.288;18.646;2023-12-22T04:27:58;97761.88;;;5.69;90.08
74218;BME280;62579;47.288;18.646;2023-12-22T04:30:24;97759.78;;;5.62;89.38
74218;BME280;62579;47.288;18.646;2023-12-22T04:32:51;97753.69;;;5.74;86.64
74218;BME280;62579;47.288;18.646;2023-12-22T04:35:16;97757.00;;;5.67;86.80
74218;BME280;62579;47.288;18.646;2023-12-22T04:37:42;97759.03;;;5.61;85.75
74218;BME280;62579;47.288;18.646;2023-12-22T04:40:07;97762.22;;;5.60;86.23
74218;BME280;62579;47.288;18.646;2023-12-22T04:42:33;97760.47;;;5.62;84.76
74218;BME280;62579;47.288;18.646;2023-12-22T04:44:59;97759.31;;;5.58;85.35
74218;BME280;62579;47.288;18.646;2023-12-22T04:47:25;97743.00;;;5.50;84.01
74218;BME280;62579;47.288;18.646;2023-12-22T04:49:50;97744.75;;;5.47;85.26
74218;BME280;62579;47.288;18.646;2023-12-22T04:52:15;97747.88;;;5.52;83.56
74218;BME280;62579;47.288;18.646;2023-12-22T04:54:41;97757.72;;;5.49;83.61
74218;BME280;62579;47.288;18.646;2023-12-22T04:57:06;97759.78;;;5.43;83.81
74218;BME280;62579;47.288;18.646;2023-12-22T04:59:33;97757.59;;;5.41;84.37
74218;BME280;62579;47.288;18.646;2023-12-22T05:01:58;97757.38;;;5.39;84.04
74218;BME280;62579;47.288;18.646;2023-12-22T05:04:23;97763.72;;;5.42;83.27
74218;BME280;62579;47.288;18.646;2023-12-22T05:06:49;97785.38;;;5.36;83.03
74218;BME280;62579;47.288;18.646;2023-12-22T05:09:15;97776.59;;;5.30;83.51
74218;BME280;62579;47.288;18.646;2023-12-22T05:11:41;97772.97;;;5.28;84.93
74218;BME280;62579;47.288;18.646;2023-12-22T05:14:06;97778.81;;;5.13;86.20
74218;BME280;62579;47.288;18.646;2023-12-22T05:16:31;97791.03;;;5.14;87.14
74218;BME280;62579;47.288;18.646;2023-12-22T05:18:58;97797.81;;;5.21;87.49
74218;BME280;62579;47.288;18.646;2023-12-22T05:21:24;97792.72;;;5.17;87.52
74218;BME280;62579;47.288;18.646;2023-12-22T05:23:50;97784.13;;;5.19;87.31
74218;BME280;62579;47.288;18.646;2023-12-22T05:26:18;97787.31;;;5.17;87.80
74218;BME280;62579;47.288;18.646;2023-12-22T05:28:43;97790.53;;;5.16;88.28
74218;BME280;62579;47.288;18.646;2023-12-22T05:31:08;97791.09;;;5.09;88.89
74218;BME280;62579;47.288;18.646;2023-12-22T05:33:34;97791.03;;;5.14;88.70
74218;BME280;62579;47.288;18.646;2023-12-22T05:36:00;97798.75;;;5.05;89.35
74218;BME280;62579;47.288;18.646;2023-12-22T05:38:25;97821.00;;;5.11;88.67
74218;BME280;62579;47.288;18.646;2023-12-22T05:40:50;97819.66;;;5.17;87.89
74218;BME280;62579;47.288;18.646;2023-12-22T05:43:16;97820.31;;;5.05;87.00
74218;BME280;62579;47.288;18.646;2023-12-22T05:45:42;97830.31;;;5.10;87.41
74218;BME280;62579;47.288;18.646;2023-12-22T05:48:07;97844.84;;;5.01;87.74
74218;BME280;62579;47.288;18.646;2023-12-22T05:50:33;97865.28;;;4.91;88.57
74218;BME280;62579;47.288;18.646;2023-12-22T05:53:00;97870.91;;;4.93;88.14
74218;BME280;62579;47.288;18.646;2023-12-22T05:55:26;97875.84;;;4.89;88.26
74218;BME280;62579;47.288;18.646;2023-12-22T05:57:51;97881.69;;;4.93;86.05
74218;BME280;62579;47.288;18.646;2023-12-22T06:00:17;97876.41;;;4.82;85.50
74218;BME280;62579;47.288;18.646;2023-12-22T06:02:42;97873.72;;;4.82;84.79
74218;BME280;62579;47.288;18.646;2023-12-22T06:05:08;97876.69;;;4.78;83.04
74218;BME280;62579;47.288;18.646;2023-12-22T06:07:34;97877.31;;;4.90;81.34
74218;BME280;62579;47.288;18.646;2023-12-22T06:09:59;97892.81;;;4.84;81.04
74218;BME280;62579;47.288;18.646;2023-12-22T06:12:24;97899.66;;;4.85;81.12
74218;BME280;62579;47.288;18.646;2023-12-22T06:14:50;97916.25;;;4.95;78.93
74218;BME280;62579;47.288;18.646;2023-12-22T06:17:15;97905.16;;;4.98;77.99
74218;BME280;62579;47.288;18.646;2023-12-22T06:19:42;97914.25;;;4.95;78.79
74218;BME280;62579;47.288;18.646;2023-12-22T06:22:07;97899.28;;;5.00;77.84
74218;BME280;62579;47.288;18.646;2023-12-22T06:24:34;97907.84;;;4.98;77.81
74218;BME280;62579;47.288;18.646;2023-12-22T06:27:00;97908.75;;;5.06;76.90
74218;BME280;62579;47.288;18.646;2023-12-22T06:29:26;97908.59;;;4.99;77.21
74218;BME280;62579;47.288;18.646;2023-12-22T06:31:52;97901.12;;;5.10;78.13
74218;BME280;62579;47.288;18.646;2023-12-22T06:34:17;97909.66;;;4.90;79.17
74218;BME280;62579;47.288;18.646;2023-12-22T06:36:43;97909.38;;;4.94;80.23
74218;BME280;62579;47.288;18.646;2023-12-22T06:39:08;97917.72;;;4.90;82.45
74218;BME280;62579;47.288;18.646;2023-12-22T06:41:34;97917.12;;;4.78;82.91
74218;BME280;62579;47.288;18.646;2023-12-22T06:43:59;97910.53;;;4.74;82.97
74218;BME280;62579;47.288;18.646;2023-12-22T06:46:25;97913.22;;;4.74;83.24
74218;BME280;62579;47.288;18.646;2023-12-22T06:48:51;97915.50;;;4.64;84.20
74218;BME280;62579;47.288;18.646;2023-12-22T06:51:22;97924.00;;;4.74;83.79
74218;BME280;62579;47.288;18.646;2023-12-22T06:53:48;97921.13;;;4.66;84.31
74218;BME280;62579;47.288;18.646;2023-12-22T06:56:15;97926.97;;;4.70;84.17
74218;BME280;62579;47.288;18.646;2023-12-22T06:58:41;97933.69;;;4.58;84.03
74218;BME280;62579;47.288;18.646;2023-12-22T07:01:06;97933.13;;;4.65;84.75
74218;BME280;62579;47.288;18.646;2023-12-22T07:03:32;97937.50;;;4.68;83.96
74218;BME280;62579;47.288;18.646;2023-12-22T07:05:57;97922.56;;;4.73;83.96
74218;BME280;62579;47.288;18.646;2023-12-22T07:08:22;97922.31;;;4.71;84.34
74218;BME280;62579;47.288;18.646;2023-12-22T07:10:48;97933.81;;;4.71;84.54
74218;BME280;62579;47.288;18.646;2023-12-22T07:13:13;97924.91;;;4.82;84.36
74218;BME280;62579;47.288;18.646;2023-12-22T07:15:38;97937.75;;;4.70;84.47
74218;BME280;62579;47.288;18.646;2023-12-22T07:18:04;97925.41;;;4.80;83.96
74218;BME280;62579;47.288;18.646;2023-12-22T07:20:30;97934.28;;;4.75;84.33
74218;BME280;62579;47.288;18.646;2023-12-22T07:22:55;97922.78;;;4.75;84.12
74218;BME280;62579;47.288;18.646;2023-12-22T07:25:21;97930.13;;;4.74;84.33
74218;BME280;62579;47.288;18.646;2023-12-22T07:27:47;97942.28;;;4.87;83.62
74218;BME280;62579;47.288;18.646;2023-12-22T07:30:13;97926.16;;;4.81;83.84
74218;BME280;62579;47.288;18.646;2023-12-22T07:32:42;97924.75;;;4.99;83.17
74218;BME280;62579;47.288;18.646;2023-12-22T07:35:08;97927.97;;;4.97;82.62
74218;BME280;62579;47.288;18.646;2023-12-22T07:37:35;97929.88;;;5.02;82.37
74218;BME280;62579;47.288;18.646;2023-12-22T07:40:00;97944.22;;;5.16;82.32
74218;BME280;62579;47.288;18.646;2023-12-22T07:42:26;97947.66;;;5.16;81.60
74218;BME280;62579;47.288;18.646;2023-12-22T07:44:51;97954.66;;;5.25;80.63
74218;BME280;62579;47.288;18.646;2023-12-22T07:47:16;97951.63;;;5.34;80.67
74218;BME280;62579;47.288;18.646;2023-12-22T07:49:42;97963.38;;;5.36;79.97
74218;BME280;62579;47.288;18.646;2023-12-22T07:52:07;97968.44;;;5.45;79.46
74218;BME280;62579;47.288;18.646;2023-12-22T07:54:33;97974.00;;;5.53;79.27
74218;BME280;62579;47.288;18.646;2023-12-22T07:56:58;97977.12;;;5.57;78.45
74218;BME280;62579;47.288;18.646;2023-12-22T07:59:24;97983.16;;;5.69;78.22
74218;BME280;62579;47.288;18.646;2023-12-22T08:01:50;97986.75;;;5.77;78.04
74218;BME280;62579;47.288;18.646;2023-12-22T08:04:15;97978.91;;;5.73;78.95
74218;BME280;62579;47.288;18.646;2023-12-22T08:06:40;97977.69;;;5.74;78.17
74218;BME280;62579;47.288;18.646;2023-12-22T08:09:06;97970.03;;;5.78;77.19
74218;BME280;62579;47.288;18.646;2023-12-22T08:11:31;97972.44;;;5.82;76.51
74218;BME280;62579;47.288;18.646;2023-12-22T08:13:56;97990.06;;;5.88;76.95
74218;BME280;62579;47.288;18.646;2023-12-22T08:16:22;97980.44;;;5.93;74.72
74218;BME280;62579;47.288;18.646;2023-12-22T08:18:47;97975.41;;;6.02;75.57
74218;BME280;62579;47.288;18.646;2023-12-22T08:21:13;97987.59;;;6.09;72.95
74218;BME280;62579;47.288;18.646;2023-12-22T08:23:39;97989.72;;;6.16;72.26
74218;BME280;62579;47.288;18.646;2023-12-22T08:26:05;97974.91;;;6.23;71.95
74218;BME280;62579;47.288;18.646;2023-12-22T08:28:30;97988.06;;;6.32;72.46
74218;BME280;62579;47.288;18.646;2023-12-22T08:30:55;97975.25;;;6.32;71.90
74218;BME280;62579;47.288;18.646;2023-12-22T08:33:21;97991.84;;;6.42;71.08
74218;BME280;62579;47.288;18.646;2023-12-22T08:35:46;97988.25;;;6.52;71.31
74218;BME280;62579;47.288;18.646;2023-12-22T08:38:11;97991.97;;;6.49;72.59
74218;BME280;62579;47.288;18.646;2023-12-22T08:40:38;97976.38;;;6.42;71.76
74218;BME280;62579;47.288;18.646;2023-12-22T08:43:03;97977.19;;;6.37;73.06
74218;BME280;62579;47.288;18.646;2023-12-22T08:45:31;97977.34;;;6.26;74.31
74218;BME280;62579;47.288;18.646;2023-12-22T08:47:57;97983.75;;;6.42;73.94
74218;BME280;62579;47.288;18.646;2023-12-22T08:50:23;98001.12;;;6.46;74.92
74218;BME280;62579;47.288;18.646;2023-12-22T08:52:48;98020.25;;;6.48;75.26
74218;BME280;62579;47.288;18.646;2023-12-22T08:55:14;98011.34;;;6.53;74.73
74218;BME280;62579;47.288;18.646;2023-12-22T08:57:40;98007.09;;;6.58;73.87
74218;BME280;62579;47.288;18.646;2023-12-22T09:00:06;98024.91;;;6.67;74.18
74218;BME280;62579;47.288;18.646;2023-12-22T09:02:32;98019.44;;;6.72;74.08
74218;BME280;62579;47.288;18.646;2023-12-22T09:04:58;98026.81;;;6.72;74.01
74218;BME280;62579;47.288;18.646;2023-12-22T09:07:24;98016.72;;;6.72;73.67
74218;BME280;62579;47.288;18.646;2023-12-22T09:09:49;98018.25;;;6.68;72.85
74218;BME280;62579;47.288;18.646;2023-12-22T09:12:15;98015.25;;;6.71;72.51
74218;BME280;62579;47.288;18.646;2023-12-22T09:14:41;98007.13;;;6.90;74.40
74218;BME280;62579;47.288;18.646;2023-12-22T09:17:06;98004.13;;;6.93;73.69
74218;BME280;62579;47.288;18.646;2023-12-22T09:19:33;98025.31;;;6.89;73.91
74218;BME280;62579;47.288;18.646;2023-12-22T09:21:59;98011.75;;;6.76;73.57
74218;BME280;62579;47.288;18.646;2023-12-22T09:24:25;98013.72;;;6.76;74.25
74218;BME280;62579;47.288;18.646;2023-12-22T09:26:50;98000.19;;;6.76;73.88
74218;BME280;62579;47.288;18.646;2023-12-22T09:29:16;97999.56;;;6.70;74.91
74218;BME280;62579;47.288;18.646;2023-12-22T09:31:46;98001.75;;;6.71;74.45
74218;BME280;62579;47.288;18.646;2023-12-22T09:34:11;98011.63;;;6.69;73.93
74218;BME280;62579;47.288;18.646;2023-12-22T09:36:37;98030.31;;;6.67;73.82
74218;BME280;62579;47.288;18.646;2023-12-22T09:39:05;98037.91;;;6.68;75.34
74218;BME280;62579;47.288;18.646;2023-12-22T09:41:30;98031.53;;;6.84;73.74
74218;BME280;62579;47.288;18.646;2023-12-22T09:43:57;98028.34;;;6.86;74.57
74218;BME280;62579;47.288;18.646;2023-12-22T09:46:25;98043.16;;;6.79;73.78
74218;BME280;62579;47.288;18.646;2023-12-22T09:48:52;98014.91;;;6.80;75.01
74218;BME280;62579;47.288;18.646;2023-12-22T09:51:18;98034.97;;;6.85;74.59
74218;BME280;62579;47.288;18.646;2023-12-22T09:53:45;98014.97;;;6.75;73.62
74218;BME280;62579;47.288;18.646;2023-12-22T09:56:11;98007.19;;;6.84;74.61
74218;BME280;62579;47.288;18.646;2023-12-22T09:58:42;98030.59;;;6.82;75.16
74218;BME280;62579;47.288;18.646;2023-12-22T10:01:08;98018.63;;;6.77;74.48
74218;BME280;62579;47.288;18.646;2023-12-22T10:03:34;98026.66;;;6.83;74.94
74218;BME280;62579;47.288;18.646;2023-12-22T10:06:02;98031.75;;;6.86;74.08
74218;BME280;62579;47.288;18.646;2023-12-22T10:08:28;98022.31;;;6.93;73.02
74218;BME280;62579;47.288;18.646;2023-12-22T10:10:55;98019.53;;;6.98;73.70
74218;BME280;62579;47.288;18.646;2023-12-22T10:13:21;98022.66;;;7.02;71.94
74218;BME280;62579;47.288;18.646;2023-12-22T10:15:47;98016.56;;;7.15;72.97
74218;BME280;62579;47.288;18.646;2023-12-22T10:18:14;98022.28;;;7.24;73.99
74218;BME280;62579;47.288;18.646;2023-12-22T10:20:39;98016.97;;;7.19;71.95
74218;BME280;62579;47.288;18.646;2023-12-22T10:23:05;98019.47;;;7.17;72.16
74218;BME280;62579;47.288;18.646;2023-12-22T10:25:31;97996.37;;;7.16;69.96
74218;BME280;62579;47.288;18.646;2023-12-22T10:27:57;98000.75;;;7.19;70.53
74218;BME280;62579;47.288;18.646;2023-12-22T10:30:23;97992.41;;;7.17;71.12
74218;BME280;62579;47.288;18.646;2023-12-22T10:32:52;97970.12;;;7.11;69.96
74218;BME280;62579;47.288;18.646;2023-12-22T10:35:20;97933.84;;;7.19;70.66
74218;BME280;62579;47.288;18.646;2023-12-22T10:37:46;97942.16;;;7.21;70.01
74218;BME280;62579;47.288;18.646;2023-12-22T10:40:13;97943.63;;;7.22;70.17
74218;BME280;62579;47.288;18.646;2023-12-22T10:42:40;97952.16;;;7.26;69.69
74218;BME280;62579;47.288;18.646;2023-12-22T10:45:09;97972.78;;;7.30;68.25
74218;BME280;62579;47.288;18.646;2023-12-22T10:47:34;97972.06;;;7.42;70.75
74218;BME280;62579;47.288;18.646;2023-12-22T10:50:03;97981.13;;;7.45;70.20
74218;BME280;62579;47.288;18.646;2023-12-22T10:52:33;97987.97;;;7.46;71.21
74218;BME280;62579;47.288;18.646;2023-12-22T10:54:59;97979.13;;;7.45;72.95
74218;BME280;62579;47.288;18.646;2023-12-22T10:57:26;97983.59;;;7.30;70.80
74218;BME280;62579;47.288;18.646;2023-12-22T10:59:52;97993.91;;;7.31;71.42
74218;BME280;62579;47.288;18.646;2023-12-22T11:02:19;97986.63;;;7.26;70.96
74218;BME280;62579;47.288;18.646;2023-12-22T11:04:56;97980.25;;;7.23;71.97
74218;BME280;62579;47.288;18.646;2023-12-22T11:07:23;97977.66;;;7.18;71.34
74218;BME280;62579;47.288;18.646;2023-12-22T11:09:51;97983.28;;;7.20;72.50
74218;BME280;62579;47.288;18.646;2023-12-22T11:12:19;97977.12;;;7.19;71.32
74218;BME280;62579;47.288;18.646;2023-12-22T11:14:46;97974.63;;;7.21;72.36
74218;BME280;62579;47.288;18.646;2023-12-22T11:17:19;97979.75;;;7.25;72.21
74218;BME280;62579;47.288;18.646;2023-12-22T11:19:49;97984.13;;;7.28;70.86
74218;BME280;62579;47.288;18.646;2023-12-22T11:22:16;97982.47;;;7.38;70.50
74218;BME280;62579;47.288;18.646;2023-12-22T11:24:48;97989.00;;;7.43;69.60
74218;BME280;62579;47.288;18.646;2023-12-22T11:27:18;97996.63;;;7.44;69.29
74218;BME280;62579;47.288;18.646;2023-12-22T11:29:47;97985.59;;;7.42;67.89
74218;BME280;62579;47.288;18.646;2023-12-22T11:32:18;98005.25;;;7.43;69.08
74218;BME280;62579;47.288;18.646;2023-12-22T11:34:45;98006.72;;;7.44;68.25
74218;BME280;62579;47.288;18.646;2023-12-22T11:37:12;98014.63;;;7.42;67.88
74218;BME280;62579;47.288;18.646;2023-12-22T11:39:39;98005.25;;;7.43;68.82
74218;BME280;62579;47.288;18.646;2023-12-22T11:42:08;97999.53;;;7.33;68.64
74218;BME280;62579;47.288;18.646;2023-12-22T11:44:34;98003.06;;;7.28;68.09
74218;BME280;62579;47.288;18.646;2023-12-22T11:47:07;97993.19;;;7.31;66.74
74218;BME280;62579;47.288;18.646;2023-12-22T11:49:35;97993.69;;;7.29;66.65
74218;BME280;62579;47.288;18.646;2023-12-22T11:52:11;97990.47;;;7.31;67.11
74218;BME280;62579;47.288;18.646;2023-12-22T11:54:51;97987.66;;;7.36;68.63
74218;BME280;62579;47.288;18.646;2023-12-22T11:57:29;97996.00;;;7.38;69.14
74218;BME280;62579;47.288;18.646;2023-12-22T11:59:56;97993.91;;;7.31;69.91
74218;BME280;62579;47.288;18.646;2023-12-22T12:02:22;98011.91;;;7.29;67.77
74218;BME280;62579;47.288;18.646;2023-12-22T12:04:51;97987.22;;;7.32;69.23
74218;BME280;62579;47.288;18.646;2023-12-22T12:07:39;97997.94;;;7.24;67.65
74218;BME280;62579;47.288;18.646;2023-12-22T12:10:08;98004.37;;;7.21;68.44
74218;BME280;62579;47.288;18.646;2023-12-22T12:12:35;98011.34;;;7.17;68.87
74218;BME280;62579;47.288;18.646;2023-12-22T12:15:13;98025.59;;;7.04;69.84
74218;BME280;62579;47.288;18.646;2023-12-22T12:17:43;98008.72;;;6.98;70.54
74218;BME280;62579;47.288;18.646;2023-12-22T12:20:11;98008.44;;;6.83;70.06
74218;BME280;62579;47.288;18.646;2023-12-22T12:22:38;97998.59;;;6.86;69.95
74218;BME280;62579;47.288;18.646;2023-12-22T12:25:08;98002.66;;;6.92;69.51
74218;BME280;62579;47.288;18.646;2023-12-22T12:27:37;98006.38;;;6.89;68.59
74218;BME280;62579;47.288;18.646;2023-12-22T12:30:08;98003.09;;;6.96;67.88
74218;BME280;62579;47.288;18.646;2023-12-22T12:32:36;97991.00;;;6.97;68.68
74218;BME280;62579;47.288;18.646;2023-12-22T12:35:01;97994.56;;;7.05;67.80
74218;BME280;62579;47.288;18.646;2023-12-22T12:37:27;97984.59;;;7.13;67.30
74218;BME280;62579;47.288;18.646;2023-12-22T12:39:55;97982.16;;;7.29;66.89
74218;BME280;62579;47.288;18.646;2023-12-22T12:42:25;97973.94;;;7.34;67.27
74218;BME280;62579;47.288;18.646;2023-12-22T12:44:53;97965.50;;;7.38;67.87
74218;BME280;62579;47.288;18.646;2023-12-22T12:47:19;97965.37;;;7.30;67.59
74218;BME280;62579;47.288;18.646;2023-12-22T12:49:45;97977.16;;;7.33;68.86
74218;BME280;62579;47.288;18.646;2023-12-22T12:52:13;97976.41;;;7.32;69.27
74218;BME280;62579;47.288;18.646;2023-12-22T12:54:39;97971.94;;;7.35;68.75